Rensselaer, Missouri
Current Conditions -  °F | °C
As of 2:15 PM on Friday 28 Nov 2014 (Local Time) from KHAE Reporting Station
Clear Clear  
Wind Chill: 52°   Ceiling: Unl
Heat Index: 52°   Visibility: 10mi
Dew Point: 32°   Wind: 10mph
Humidity: 47%   Direction: 190°S
Pressure: 29.88"   Gusts: 17mph
Location:  39.7145°N, 91.4209°W
Report Text: KHAE 282015Z AUTO 19009G15KT 10SM CLR 11/00 A2988 RMK AO2
Loading
Personal Weather Stations






























Interactive Weather Map New forecast layout! Learn more

10-Day Weather Forecast

Advertisements
Track Severe Weather on mobile